sensor_id;sensor_type;location;lat;lon;timestamp;P1;durP1;ratioP1;P2;durP2;ratioP2
20185;SDS011;10252;48.792;8.582;2022-10-23T00:03:29;6.63;;;2.80;;
20185;SDS011;10252;48.792;8.582;2022-10-23T00:08:30;9.48;;;3.30;;
20185;SDS011;10252;48.792;8.582;2022-10-23T00:13:31;5.30;;;2.75;;
20185;SDS011;10252;48.792;8.582;2022-10-23T00:18:32;9.38;;;2.47;;
20185;SDS011;10252;48.792;8.582;2022-10-23T00:23:34;5.22;;;2.58;;
20185;SDS011;10252;48.792;8.582;2022-10-23T00:28:35;6.90;;;2.63;;
20185;SDS011;10252;48.792;8.582;2022-10-23T00:33:36;7.35;;;3.08;;
20185;SDS011;10252;48.792;8.582;2022-10-23T00:38:37;8.48;;;3.03;;
20185;SDS011;10252;48.792;8.582;2022-10-23T00:48:55;6.38;;;2.70;;
20185;SDS011;10252;48.792;8.582;2022-10-23T00:53:57;9.68;;;2.92;;
20185;SDS011;10252;48.792;8.582;2022-10-23T00:58:58;7.78;;;3.40;;
20185;SDS011;10252;48.792;8.582;2022-10-23T01:04:00;5.22;;;3.00;;
20185;SDS011;10252;48.792;8.582;2022-10-23T01:09:04;6.43;;;2.72;;
20185;SDS011;10252;48.792;8.582;2022-10-23T01:35:02;7.85;;;3.30;;
20185;SDS011;10252;48.792;8.582;2022-10-23T01:40:04;5.93;;;2.80;;
20185;SDS011;10252;48.792;8.582;2022-10-23T01:45:18;7.10;;;3.13;;
20185;SDS011;10252;48.792;8.582;2022-10-23T01:50:21;6.03;;;2.72;;
20185;SDS011;10252;48.792;8.582;2022-10-23T01:55:31;5.00;;;2.40;;
20185;SDS011;10252;48.792;8.582;2022-10-23T02:00:35;3.22;;;2.50;;
20185;SDS011;10252;48.792;8.582;2022-10-23T02:05:38;2.95;;;2.35;;
20185;SDS011;10252;48.792;8.582;2022-10-23T02:16:04;5.00;;;2.45;;
20185;SDS011;10252;48.792;8.582;2022-10-23T02:21:09;6.65;;;2.58;;
20185;SDS011;10252;48.792;8.582;2022-10-23T02:26:18;11.30;;;2.42;;
20185;SDS011;10252;48.792;8.582;2022-10-23T02:31:22;3.63;;;2.50;;
20185;SDS011;10252;48.792;8.582;2022-10-23T02:36:24;4.43;;;2.08;;
20185;SDS011;10252;48.792;8.582;2022-10-23T02:41:43;4.57;;;2.00;;
20185;SDS011;10252;48.792;8.582;2022-10-23T02:51:54;4.03;;;2.20;;
20185;SDS011;10252;48.792;8.582;2022-10-23T02:57:02;3.35;;;2.33;;
20185;SDS011;10252;48.792;8.582;2022-10-23T03:07:14;2.78;;;2.22;;
20185;SDS011;10252;48.792;8.582;2022-10-23T03:12:18;7.05;;;2.70;;
20185;SDS011;10252;48.792;8.582;2022-10-23T03:17:19;3.22;;;2.40;;
20185;SDS011;10252;48.792;8.582;2022-10-23T03:22:21;4.97;;;2.53;;
20185;SDS011;10252;48.792;8.582;2022-10-23T03:27:22;4.53;;;2.50;;
20185;SDS011;10252;48.792;8.582;2022-10-23T03:32:23;5.55;;;2.38;;
20185;SDS011;10252;48.792;8.582;2022-10-23T03:37:24;4.05;;;2.53;;
20185;SDS011;10252;48.792;8.582;2022-10-23T03:42:25;5.63;;;2.03;;
20185;SDS011;10252;48.792;8.582;2022-10-23T03:47:26;5.43;;;2.53;;
20185;SDS011;10252;48.792;8.582;2022-10-23T03:52:30;6.68;;;2.10;;
20185;SDS011;10252;48.792;8.582;2022-10-23T03:57:31;5.93;;;2.20;;
20185;SDS011;10252;48.792;8.582;2022-10-23T04:02:32;4.32;;;2.28;;
20185;SDS011;10252;48.792;8.582;2022-10-23T04:07:34;6.82;;;2.53;;
20185;SDS011;10252;48.792;8.582;2022-10-23T04:12:36;6.75;;;2.28;;
20185;SDS011;10252;48.792;8.582;2022-10-23T04:17:39;4.20;;;2.40;;
20185;SDS011;10252;48.792;8.582;2022-10-23T04:22:40;5.28;;;2.60;;
20185;SDS011;10252;48.792;8.582;2022-10-23T04:27:41;5.18;;;2.28;;
20185;SDS011;10252;48.792;8.582;2022-10-23T04:32:42;3.10;;;2.40;;
20185;SDS011;10252;48.792;8.582;2022-10-23T04:37:43;2.50;;;1.85;;
20185;SDS011;10252;48.792;8.582;2022-10-23T04:42:44;5.97;;;2.08;;
20185;SDS011;10252;48.792;8.582;2022-10-23T04:47:46;2.50;;;2.30;;
20185;SDS011;10252;48.792;8.582;2022-10-23T04:52:47;6.38;;;2.53;;
20185;SDS011;10252;48.792;8.582;2022-10-23T04:58:07;6.38;;;2.15;;
20185;SDS011;10252;48.792;8.582;2022-10-23T05:03:08;4.20;;;2.60;;
20185;SDS011;10252;48.792;8.582;2022-10-23T05:08:13;5.63;;;2.47;;
20185;SDS011;10252;48.792;8.582;2022-10-23T05:13:37;4.63;;;2.88;;
20185;SDS011;10252;48.792;8.582;2022-10-23T05:18:39;7.22;;;2.25;;
20185;SDS011;10252;48.792;8.582;2022-10-23T05:23:47;4.40;;;2.20;;
20185;SDS011;10252;48.792;8.582;2022-10-23T05:28:49;4.72;;;2.33;;
20185;SDS011;10252;48.792;8.582;2022-10-23T05:33:51;4.93;;;2.30;;
20185;SDS011;10252;48.792;8.582;2022-10-23T05:38:54;4.47;;;2.20;;
20185;SDS011;10252;48.792;8.582;2022-10-23T05:43:56;1.65;;;1.52;;
20185;SDS011;10252;48.792;8.582;2022-10-23T05:49:29;2.58;;;2.10;;
20185;SDS011;10252;48.792;8.582;2022-10-23T05:54:52;4.00;;;2.70;;
20185;SDS011;10252;48.792;8.582;2022-10-23T06:00:12;4.63;;;2.50;;
20185;SDS011;10252;48.792;8.582;2022-10-23T06:05:13;4.45;;;2.10;;
20185;SDS011;10252;48.792;8.582;2022-10-23T06:10:17;2.88;;;2.33;;
20185;SDS011;10252;48.792;8.582;2022-10-23T06:15:21;5.57;;;2.15;;
20185;SDS011;10252;48.792;8.582;2022-10-23T06:20:37;3.50;;;2.08;;
20185;SDS011;10252;48.792;8.582;2022-10-23T06:25:49;5.07;;;2.40;;
20185;SDS011;10252;48.792;8.582;2022-10-23T06:30:50;3.20;;;2.40;;
20185;SDS011;10252;48.792;8.582;2022-10-23T06:35:54;4.15;;;2.63;;
20185;SDS011;10252;48.792;8.582;2022-10-23T06:40:55;6.93;;;2.28;;
20185;SDS011;10252;48.792;8.582;2022-10-23T06:46:09;3.53;;;2.05;;
20185;SDS011;10252;48.792;8.582;2022-10-23T06:51:29;4.10;;;2.17;;
20185;SDS011;10252;48.792;8.582;2022-10-23T06:56:30;5.30;;;2.58;;
20185;SDS011;10252;48.792;8.582;2022-10-23T07:01:33;8.90;;;5.07;;
20185;SDS011;10252;48.792;8.582;2022-10-23T07:06:35;5.25;;;2.10;;
20185;SDS011;10252;48.792;8.582;2022-10-23T07:11:36;8.38;;;3.63;;
20185;SDS011;10252;48.792;8.582;2022-10-23T07:16:37;6.60;;;3.05;;
20185;SDS011;10252;48.792;8.582;2022-10-23T07:21:38;10.80;;;2.40;;
20185;SDS011;10252;48.792;8.582;2022-10-23T07:27:03;4.72;;;3.15;;
20185;SDS011;10252;48.792;8.582;2022-10-23T07:32:04;5.97;;;3.15;;
20185;SDS011;10252;48.792;8.582;2022-10-23T07:37:08;2.75;;;2.20;;
20185;SDS011;10252;48.792;8.582;2022-10-23T07:42:09;1.83;;;1.30;;
20185;SDS011;10252;48.792;8.582;2022-10-23T07:47:11;3.35;;;1.20;;
20185;SDS011;10252;48.792;8.582;2022-10-23T07:52:15;2.88;;;1.10;;
20185;SDS011;10252;48.792;8.582;2022-10-23T07:57:36;2.97;;;1.88;;
20185;SDS011;10252;48.792;8.582;2022-10-23T08:02:57;3.67;;;1.75;;
20185;SDS011;10252;48.792;8.582;2022-10-23T08:07:59;3.55;;;1.23;;
20185;SDS011;10252;48.792;8.582;2022-10-23T08:13:00;1.90;;;0.98;;
20185;SDS011;10252;48.792;8.582;2022-10-23T08:18:24;3.00;;;1.00;;
20185;SDS011;10252;48.792;8.582;2022-10-23T08:23:26;2.35;;;0.88;;
20185;SDS011;10252;48.792;8.582;2022-10-23T08:28:27;3.15;;;1.00;;
20185;SDS011;10252;48.792;8.582;2022-10-23T08:33:30;1.30;;;0.90;;
20185;SDS011;10252;48.792;8.582;2022-10-23T08:38:31;3.28;;;1.05;;
20185;SDS011;10252;48.792;8.582;2022-10-23T08:54:28;2.60;;;1.00;;
20185;SDS011;10252;48.792;8.582;2022-10-23T08:59:33;2.95;;;1.02;;
20185;SDS011;10252;48.792;8.582;2022-10-23T09:04:39;5.47;;;2.90;;
20185;SDS011;10252;48.792;8.582;2022-10-23T09:14:47;1.95;;;0.80;;
20185;SDS011;10252;48.792;8.582;2022-10-23T09:20:12;1.90;;;1.20;;
20185;SDS011;10252;48.792;8.582;2022-10-23T09:25:16;3.13;;;1.00;;
20185;SDS011;10252;48.792;8.582;2022-10-23T09:30:51;2.47;;;0.80;;
20185;SDS011;10252;48.792;8.582;2022-10-23T09:40:52;8.00;;;1.20;;
20185;SDS011;10252;48.792;8.582;2022-10-23T09:45:57;2.30;;;1.15;;
20185;SDS011;10252;48.792;8.582;2022-10-23T09:50:59;3.13;;;1.35;;
20185;SDS011;10252;48.792;8.582;2022-10-23T10:01:32;3.90;;;0.95;;
20185;SDS011;10252;48.792;8.582;2022-10-23T10:07:02;2.10;;;0.63;;
20185;SDS011;10252;48.792;8.582;2022-10-23T10:17:32;2.25;;;0.80;;
20185;SDS011;10252;48.792;8.582;2022-10-23T10:33:04;3.05;;;1.17;;
20185;SDS011;10252;48.792;8.582;2022-10-23T10:48:30;4.65;;;0.90;;
20185;SDS011;10252;48.792;8.582;2022-10-23T10:59:25;2.75;;;0.52;;
20185;SDS011;10252;48.792;8.582;2022-10-23T11:09:31;1.13;;;0.70;;
20185;SDS011;10252;48.792;8.582;2022-10-23T11:14:33;6.00;;;0.80;;
20185;SDS011;10252;48.792;8.582;2022-10-23T11:19:35;1.85;;;0.90;;
20185;SDS011;10252;48.792;8.582;2022-10-23T11:40:20;1.73;;;0.88;;
20185;SDS011;10252;48.792;8.582;2022-10-23T11:50:36;1.00;;;0.90;;
20185;SDS011;10252;48.792;8.582;2022-10-23T12:01:14;5.68;;;1.25;;
20185;SDS011;10252;48.792;8.582;2022-10-23T12:06:19;4.43;;;1.10;;
20185;SDS011;10252;48.792;8.582;2022-10-23T12:11:41;1.92;;;1.00;;
20185;SDS011;10252;48.792;8.582;2022-10-23T12:16:42;3.58;;;1.02;;
20185;SDS011;10252;48.792;8.582;2022-10-23T12:21:45;1.48;;;1.05;;
20185;SDS011;10252;48.792;8.582;2022-10-23T12:27:11;3.25;;;1.00;;
20185;SDS011;10252;48.792;8.582;2022-10-23T12:42:23;4.78;;;1.30;;
20185;SDS011;10252;48.792;8.582;2022-10-23T12:47:27;8.57;;;5.55;;
20185;SDS011;10252;48.792;8.582;2022-10-23T12:52:29;5.22;;;3.60;;
20185;SDS011;10252;48.792;8.582;2022-10-23T12:57:39;7.70;;;1.58;;
20185;SDS011;10252;48.792;8.582;2022-10-23T13:02:41;3.95;;;1.20;;
20185;SDS011;10252;48.792;8.582;2022-10-23T13:07:43;1.73;;;0.98;;
20185;SDS011;10252;48.792;8.582;2022-10-23T13:13:00;1.42;;;0.90;;
20185;SDS011;10252;48.792;8.582;2022-10-23T13:18:02;4.93;;;0.88;;
20185;SDS011;10252;48.792;8.582;2022-10-23T13:23:14;2.65;;;1.35;;
20185;SDS011;10252;48.792;8.582;2022-10-23T13:28:21;7.55;;;1.95;;
20185;SDS011;10252;48.792;8.582;2022-10-23T13:38:27;4.72;;;1.30;;
20185;SDS011;10252;48.792;8.582;2022-10-23T13:43:28;5.40;;;1.25;;
20185;SDS011;10252;48.792;8.582;2022-10-23T13:48:30;3.55;;;1.20;;
20185;SDS011;10252;48.792;8.582;2022-10-23T13:53:31;8.93;;;1.65;;
20185;SDS011;10252;48.792;8.582;2022-10-23T13:58:32;8.48;;;1.52;;
20185;SDS011;10252;48.792;8.582;2022-10-23T14:03:33;6.25;;;2.22;;
20185;SDS011;10252;48.792;8.582;2022-10-23T14:08:34;10.50;;;2.08;;
20185;SDS011;10252;48.792;8.582;2022-10-23T14:13:36;6.45;;;1.77;;
20185;SDS011;10252;48.792;8.582;2022-10-23T14:18:37;10.25;;;2.22;;
20185;SDS011;10252;48.792;8.582;2022-10-23T14:23:38;12.93;;;2.47;;
20185;SDS011;10252;48.792;8.582;2022-10-23T14:28:39;9.55;;;2.00;;
20185;SDS011;10252;48.792;8.582;2022-10-23T14:33:41;4.50;;;1.77;;
20185;SDS011;10252;48.792;8.582;2022-10-23T14:38:42;7.93;;;2.00;;
20185;SDS011;10252;48.792;8.582;2022-10-23T14:43:43;5.72;;;1.70;;
20185;SDS011;10252;48.792;8.582;2022-10-23T14:48:44;4.93;;;1.63;;
20185;SDS011;10252;48.792;8.582;2022-10-23T14:53:46;4.63;;;1.77;;
20185;SDS011;10252;48.792;8.582;2022-10-23T14:58:47;8.27;;;2.25;;
20185;SDS011;10252;48.792;8.582;2022-10-23T15:03:48;10.52;;;3.13;;
20185;SDS011;10252;48.792;8.582;2022-10-23T15:08:54;12.70;;;2.65;;
20185;SDS011;10252;48.792;8.582;2022-10-23T15:13:57;6.82;;;2.03;;
20185;SDS011;10252;48.792;8.582;2022-10-23T15:18:59;10.05;;;3.08;;
20185;SDS011;10252;48.792;8.582;2022-10-23T15:24:00;7.25;;;2.75;;
20185;SDS011;10252;48.792;8.582;2022-10-23T15:29:01;6.22;;;2.90;;
20185;SDS011;10252;48.792;8.582;2022-10-23T15:34:03;7.88;;;2.70;;
20185;SDS011;10252;48.792;8.582;2022-10-23T15:39:06;7.43;;;2.22;;
20185;SDS011;10252;48.792;8.582;2022-10-23T15:44:09;8.30;;;2.33;;
20185;SDS011;10252;48.792;8.582;2022-10-23T15:49:11;3.67;;;1.80;;
20185;SDS011;10252;48.792;8.582;2022-10-23T15:54:13;3.83;;;1.58;;
20185;SDS011;10252;48.792;8.582;2022-10-23T15:59:16;4.97;;;1.58;;
20185;SDS011;10252;48.792;8.582;2022-10-23T16:04:17;8.88;;;2.67;;
20185;SDS011;10252;48.792;8.582;2022-10-23T16:09:19;3.97;;;1.70;;
20185;SDS011;10252;48.792;8.582;2022-10-23T16:14:20;6.93;;;2.00;;
20185;SDS011;10252;48.792;8.582;2022-10-23T16:19:21;6.93;;;2.22;;
20185;SDS011;10252;48.792;8.582;2022-10-23T16:24:22;5.50;;;2.13;;
20185;SDS011;10252;48.792;8.582;2022-10-23T16:29:24;9.80;;;3.60;;
20185;SDS011;10252;48.792;8.582;2022-10-23T16:34:25;6.25;;;1.92;;
20185;SDS011;10252;48.792;8.582;2022-10-23T16:39:26;5.28;;;1.80;;
20185;SDS011;10252;48.792;8.582;2022-10-23T16:44:47;9.02;;;1.83;;
20185;SDS011;10252;48.792;8.582;2022-10-23T16:49:48;7.60;;;1.67;;
20185;SDS011;10252;48.792;8.582;2022-10-23T16:54:49;2.65;;;1.50;;
20185;SDS011;10252;48.792;8.582;2022-10-23T16:59:50;11.48;;;3.17;;
20185;SDS011;10252;48.792;8.582;2022-10-23T17:04:51;7.28;;;2.20;;
20185;SDS011;10252;48.792;8.582;2022-10-23T17:09:52;3.33;;;2.00;;
20185;SDS011;10252;48.792;8.582;2022-10-23T17:14:53;6.00;;;2.65;;
20185;SDS011;10252;48.792;8.582;2022-10-23T17:19:54;5.00;;;2.20;;
20185;SDS011;10252;48.792;8.582;2022-10-23T17:24:55;5.65;;;3.83;;
20185;SDS011;10252;48.792;8.582;2022-10-23T17:29:56;24.77;;;21.42;;
20185;SDS011;10252;48.792;8.582;2022-10-23T17:34:57;9.40;;;3.28;;
20185;SDS011;10252;48.792;8.582;2022-10-23T17:39:58;5.57;;;1.33;;
20185;SDS011;10252;48.792;8.582;2022-10-23T17:45:01;5.75;;;2.05;;
20185;SDS011;10252;48.792;8.582;2022-10-23T17:50:02;7.78;;;3.00;;
20185;SDS011;10252;48.792;8.582;2022-10-23T17:55:05;5.53;;;2.05;;
20185;SDS011;10252;48.792;8.582;2022-10-23T18:00:07;12.82;;;3.15;;
20185;SDS011;10252;48.792;8.582;2022-10-23T18:05:12;10.90;;;2.67;;
20185;SDS011;10252;48.792;8.582;2022-10-23T18:10:13;13.02;;;3.13;;
20185;SDS011;10252;48.792;8.582;2022-10-23T18:15:14;7.40;;;2.72;;
20185;SDS011;10252;48.792;8.582;2022-10-23T18:20:15;5.47;;;2.80;;
20185;SDS011;10252;48.792;8.582;2022-10-23T18:25:16;17.25;;;3.65;;
20185;SDS011;10252;48.792;8.582;2022-10-23T18:30:17;9.98;;;3.17;;
20185;SDS011;10252;48.792;8.582;2022-10-23T18:35:19;11.73;;;3.35;;
20185;SDS011;10252;48.792;8.582;2022-10-23T18:40:20;9.77;;;3.22;;
20185;SDS011;10252;48.792;8.582;2022-10-23T18:45:21;13.07;;;2.90;;
20185;SDS011;10252;48.792;8.582;2022-10-23T18:50:22;10.65;;;3.00;;
20185;SDS011;10252;48.792;8.582;2022-10-23T18:55:23;11.75;;;3.38;;
20185;SDS011;10252;48.792;8.582;2022-10-23T19:00:24;13.57;;;3.80;;
20185;SDS011;10252;48.792;8.582;2022-10-23T19:05:25;11.27;;;3.90;;
20185;SDS011;10252;48.792;8.582;2022-10-23T19:10:28;12.02;;;3.63;;
20185;SDS011;10252;48.792;8.582;2022-10-23T19:15:31;13.27;;;3.58;;
20185;SDS011;10252;48.792;8.582;2022-10-23T19:20:33;13.80;;;3.47;;
20185;SDS011;10252;48.792;8.582;2022-10-23T19:25:34;14.52;;;4.40;;
20185;SDS011;10252;48.792;8.582;2022-10-23T19:30:36;18.55;;;4.63;;
20185;SDS011;10252;48.792;8.582;2022-10-23T19:35:37;12.25;;;4.15;;
20185;SDS011;10252;48.792;8.582;2022-10-23T19:40:38;10.63;;;4.72;;
20185;SDS011;10252;48.792;8.582;2022-10-23T19:45:39;11.25;;;4.85;;
20185;SDS011;10252;48.792;8.582;2022-10-23T19:50:41;11.60;;;3.83;;
20185;SDS011;10252;48.792;8.582;2022-10-23T19:55:42;18.02;;;5.53;;
20185;SDS011;10252;48.792;8.582;2022-10-23T20:00:43;18.38;;;4.60;;
20185;SDS011;10252;48.792;8.582;2022-10-23T20:05:44;14.27;;;3.33;;
20185;SDS011;10252;48.792;8.582;2022-10-23T20:10:45;12.80;;;3.78;;
20185;SDS011;10252;48.792;8.582;2022-10-23T20:15:46;12.25;;;3.97;;
20185;SDS011;10252;48.792;8.582;2022-10-23T20:20:48;17.27;;;3.67;;
20185;SDS011;10252;48.792;8.582;2022-10-23T20:25:49;16.25;;;3.35;;
20185;SDS011;10252;48.792;8.582;2022-10-23T20:30:50;9.45;;;3.38;;
20185;SDS011;10252;48.792;8.582;2022-10-23T20:35:51;14.98;;;4.30;;
20185;SDS011;10252;48.792;8.582;2022-10-23T20:40:54;12.48;;;3.85;;
20185;SDS011;10252;48.792;8.582;2022-10-23T20:45:55;14.80;;;3.90;;
20185;SDS011;10252;48.792;8.582;2022-10-23T20:51:00;19.95;;;4.35;;
20185;SDS011;10252;48.792;8.582;2022-10-23T20:56:05;10.38;;;3.60;;
20185;SDS011;10252;48.792;8.582;2022-10-23T21:01:08;13.07;;;4.10;;
20185;SDS011;10252;48.792;8.582;2022-10-23T21:06:13;9.23;;;3.33;;
20185;SDS011;10252;48.792;8.582;2022-10-23T21:11:15;14.93;;;3.97;;
20185;SDS011;10252;48.792;8.582;2022-10-23T21:16:17;12.98;;;3.55;;
20185;SDS011;10252;48.792;8.582;2022-10-23T21:21:19;13.18;;;4.30;;
20185;SDS011;10252;48.792;8.582;2022-10-23T21:26:21;14.23;;;4.60;;
20185;SDS011;10252;48.792;8.582;2022-10-23T21:31:23;12.40;;;4.03;;
20185;SDS011;10252;48.792;8.582;2022-10-23T21:36:24;21.55;;;4.55;;
20185;SDS011;10252;48.792;8.582;2022-10-23T21:41:28;8.00;;;3.15;;
20185;SDS011;10252;48.792;8.582;2022-10-23T21:46:29;17.00;;;4.05;;
20185;SDS011;10252;48.792;8.582;2022-10-23T21:51:32;11.38;;;3.55;;
20185;SDS011;10252;48.792;8.582;2022-10-23T21:56:42;13.43;;;3.58;;
20185;SDS011;10252;48.792;8.582;2022-10-23T22:01:45;14.80;;;3.40;;
20185;SDS011;10252;48.792;8.582;2022-10-23T22:06:47;18.98;;;3.97;;
20185;SDS011;10252;48.792;8.582;2022-10-23T22:11:49;14.32;;;3.50;;
20185;SDS011;10252;48.792;8.582;2022-10-23T22:16:51;8.52;;;2.80;;
20185;SDS011;10252;48.792;8.582;2022-10-23T22:21:52;16.88;;;3.22;;
20185;SDS011;10252;48.792;8.582;2022-10-23T22:26:54;10.05;;;3.60;;
20185;SDS011;10252;48.792;8.582;2022-10-23T22:31:55;15.38;;;3.70;;
20185;SDS011;10252;48.792;8.582;2022-10-23T22:36:57;12.80;;;2.88;;
20185;SDS011;10252;48.792;8.582;2022-10-23T22:41:58;10.18;;;2.47;;
20185;SDS011;10252;48.792;8.582;2022-10-23T22:46:59;11.55;;;2.53;;
20185;SDS011;10252;48.792;8.582;2022-10-23T22:52:00;12.00;;;2.70;;
20185;SDS011;10252;48.792;8.582;2022-10-23T22:57:01;9.52;;;2.80;;
20185;SDS011;10252;48.792;8.582;2022-10-23T23:02:02;10.10;;;2.83;;
20185;SDS011;10252;48.792;8.582;2022-10-23T23:07:04;14.88;;;4.00;;
20185;SDS011;10252;48.792;8.582;2022-10-23T23:12:06;14.68;;;2.88;;
20185;SDS011;10252;48.792;8.582;2022-10-23T23:17:07;6.47;;;2.25;;
20185;SDS011;10252;48.792;8.582;2022-10-23T23:22:09;6.97;;;2.13;;
20185;SDS011;10252;48.792;8.582;2022-10-23T23:27:10;10.93;;;2.92;;
20185;SDS011;10252;48.792;8.582;2022-10-23T23:32:11;7.10;;;2.33;;
20185;SDS011;10252;48.792;8.582;2022-10-23T23:37:12;5.82;;;2.00;;
20185;SDS011;10252;48.792;8.582;2022-10-23T23:42:13;8.85;;;2.08;;
20185;SDS011;10252;48.792;8.582;2022-10-23T23:47:14;11.35;;;2.60;;
20185;SDS011;10252;48.792;8.582;2022-10-23T23:52:15;13.52;;;2.33;;
20185;SDS011;10252;48.792;8.582;2022-10-23T23:57:16;8.02;;;2.10;;
